createdAt,value
2018-07-12T00:00:22.534Z,4.60
2018-07-12T00:01:22.545Z,8.30
2018-07-12T00:02:22.492Z,5.80
2018-07-12T00:03:22.494Z,4.00
2018-07-12T00:04:22.489Z,4.90
2018-07-12T00:05:22.457Z,9.60
2018-07-12T00:06:22.447Z,7.60
2018-07-12T00:07:22.437Z,6.80
2018-07-12T00:08:22.443Z,8.50
2018-07-12T00:09:22.415Z,6.50
2018-07-12T00:10:22.402Z,6.30
2018-07-12T00:11:22.390Z,6.70
2018-07-12T00:12:22.382Z,8.80
2018-07-12T00:13:22.367Z,6.60
2018-07-12T00:14:22.371Z,4.40
2018-07-12T00:15:22.349Z,8.10
2018-07-12T00:16:22.335Z,5.00
2018-07-12T00:17:22.333Z,7.00
2018-07-12T00:18:22.312Z,6.00
2018-07-12T00:19:22.316Z,6.80
2018-07-12T00:20:22.290Z,6.40
2018-07-12T00:21:22.280Z,7.20
2018-07-12T00:22:22.268Z,4.70
2018-07-12T00:23:22.258Z,6.10
2018-07-12T00:24:22.265Z,9.00
2018-07-12T00:25:22.235Z,8.10
2018-07-12T00:26:22.223Z,9.10
2018-07-12T00:27:22.234Z,8.50
2018-07-12T00:28:22.201Z,7.60
2018-07-12T00:29:22.189Z,8.30
2018-07-12T00:30:22.196Z,10.80
2018-07-12T00:31:22.166Z,10.10
2018-07-12T00:32:22.164Z,6.10
2018-07-12T00:33:22.147Z,7.80
2018-07-12T00:34:22.136Z,5.50
2018-07-12T00:35:22.142Z,8.10
2018-07-12T00:36:22.113Z,8.50
2018-07-12T00:37:22.103Z,6.40
2018-07-12T00:38:22.095Z,10.30
2018-07-12T00:39:22.082Z,8.00
2018-07-12T00:40:22.077Z,10.00
2018-07-12T00:41:22.073Z,9.40
2018-07-12T00:42:22.047Z,12.50
2018-07-12T00:43:22.038Z,5.90
2018-07-12T00:44:22.026Z,7.40
2018-07-12T00:45:22.013Z,6.40
2018-07-12T00:46:22.024Z,8.70
2018-07-12T00:47:21.993Z,7.90
2018-07-12T00:48:21.980Z,7.50
2018-07-12T00:49:21.992Z,9.70
2018-07-12T00:50:21.983Z,5.60
2018-07-12T00:51:21.948Z,7.80
2018-07-12T00:52:21.951Z,8.40
2018-07-12T00:53:21.926Z,5.10
2018-07-12T00:54:21.916Z,9.20
2018-07-12T00:55:21.903Z,9.50
2018-07-12T00:56:21.896Z,7.00
2018-07-12T00:57:21.897Z,12.40
2018-07-12T00:58:21.874Z,7.50
2018-07-12T00:59:21.862Z,7.30
2018-07-12T01:00:21.849Z,10.60
2018-07-12T01:01:21.839Z,8.20
2018-07-12T01:02:21.847Z,10.00
2018-07-12T01:03:21.831Z,7.90
2018-07-12T01:04:21.806Z,8.50
2018-07-12T01:05:21.796Z,10.70
2018-07-12T01:06:21.782Z,8.40
2018-07-12T01:07:21.793Z,6.80
2018-07-12T01:08:21.760Z,10.70
2018-07-12T01:09:21.749Z,8.70
2018-07-12T01:10:21.738Z,10.30
2018-07-12T01:11:21.726Z,12.00
2018-07-12T01:12:21.720Z,8.90
2018-07-12T01:13:21.781Z,11.00
2018-07-12T01:14:21.696Z,7.40
2018-07-12T01:15:21.684Z,17.70
2018-07-12T01:16:21.672Z,8.10
2018-07-12T01:17:21.660Z,11.20
2018-07-12T01:18:21.670Z,10.20
2018-07-12T01:19:21.685Z,19.40
2018-07-12T01:20:21.625Z,8.50
2018-07-12T01:21:21.615Z,10.40
2018-07-12T01:22:21.612Z,13.50
2018-07-12T01:23:21.619Z,8.90
2018-07-12T01:24:21.601Z,13.10
2018-07-12T01:25:21.572Z,9.00
2018-07-12T01:26:21.575Z,9.20
2018-07-12T01:27:21.549Z,10.50
2018-07-12T01:28:21.544Z,10.10
2018-07-12T01:29:21.553Z,12.90
2018-07-12T01:30:21.520Z,10.80
2018-07-12T01:31:21.506Z,8.80
2018-07-12T01:32:21.493Z,10.30
2018-07-12T01:33:21.483Z,13.00
2018-07-12T01:34:21.473Z,15.50
2018-07-12T01:35:21.473Z,7.70
2018-07-12T01:36:21.450Z,15.90
2018-07-12T01:37:21.439Z,8.20
2018-07-12T01:38:21.427Z,7.40
2018-07-12T01:39:21.420Z,13.10
2018-07-12T01:40:21.418Z,8.00
2018-07-12T01:41:21.415Z,10.70
2018-07-12T01:42:21.383Z,9.70
2018-07-12T01:43:21.370Z,12.00
2018-07-12T01:44:21.360Z,11.10
2018-07-12T01:45:21.369Z,16.70
2018-07-12T01:46:21.342Z,9.50
2018-07-12T01:47:21.329Z,10.80
2018-07-12T01:48:21.317Z,15.70
2018-07-12T01:49:21.326Z,13.20
2018-07-12T01:50:21.295Z,12.10
2018-07-12T01:51:21.296Z,9.10
2018-07-12T01:52:21.273Z,17.00
2018-07-12T01:53:21.261Z,9.80
2018-07-12T01:54:21.251Z,19.80
2018-07-12T01:55:21.243Z,11.90
2018-07-12T01:56:21.246Z,10.30
2018-07-12T01:57:21.217Z,19.10
2018-07-12T01:58:21.235Z,9.40
2018-07-12T01:59:21.201Z,14.50
2018-07-12T02:00:21.183Z,12.60
2018-07-12T02:01:21.173Z,12.90
2018-07-12T02:02:21.197Z,14.60
2018-07-12T02:03:21.226Z,12.70
2018-07-12T02:04:21.139Z,13.10
2018-07-12T02:05:21.126Z,12.30
2018-07-12T02:06:21.117Z,13.00
2018-07-12T02:07:21.128Z,9.20
2018-07-12T02:08:21.094Z,13.20
2018-07-12T02:09:21.083Z,10.40
2018-07-12T02:10:21.071Z,10.80
2018-07-12T02:11:21.058Z,16.30
2018-07-12T02:12:21.068Z,10.70
2018-07-12T02:13:21.051Z,10.80
2018-07-12T02:14:21.028Z,14.80
2018-07-12T02:15:21.017Z,12.30
2018-07-12T02:16:21.003Z,14.70
2018-07-12T02:17:20.996Z,11.20
2018-07-12T02:18:21.001Z,12.30
2018-07-12T02:19:20.971Z,15.30
2018-07-12T02:20:20.956Z,11.10
2018-07-12T02:21:20.946Z,10.30
2018-07-12T02:22:20.936Z,10.10
2018-07-12T02:23:20.924Z,14.30
2018-07-12T02:24:20.939Z,14.40
2018-07-12T02:25:20.921Z,10.80
2018-07-12T02:26:20.889Z,8.60
2018-07-12T02:27:20.877Z,12.00
2018-07-12T02:28:20.867Z,11.70
2018-07-12T02:29:20.856Z,13.40
2018-07-12T02:30:20.858Z,10.40
2018-07-12T02:31:20.836Z,9.90
2018-07-12T02:32:20.824Z,12.90
2018-07-12T02:33:20.817Z,11.00
2018-07-12T02:34:20.798Z,11.50
2018-07-12T02:35:20.826Z,16.70
2018-07-12T02:36:20.787Z,9.40
2018-07-12T02:37:20.768Z,11.60
2018-07-12T02:38:20.761Z,10.40
2018-07-12T02:39:20.744Z,13.30
2018-07-12T02:40:20.739Z,9.50
2018-07-12T02:41:20.747Z,13.80
2018-07-12T02:42:20.708Z,11.10
2018-07-12T02:43:20.697Z,11.50
2018-07-12T02:44:20.684Z,10.30
2018-07-12T02:45:20.675Z,14.60
2018-07-12T02:46:20.664Z,12.20
2018-07-12T02:47:20.664Z,12.70
2018-07-12T02:48:20.651Z,12.00
2018-07-12T02:49:20.628Z,9.30
2018-07-12T02:50:20.617Z,17.50
2018-07-12T02:51:20.607Z,15.70
2018-07-12T02:52:20.611Z,10.50
2018-07-12T02:53:20.586Z,11.10
2018-07-12T02:54:20.575Z,12.20
2018-07-12T02:55:20.561Z,14.30
2018-07-12T02:56:20.549Z,13.70
2018-07-12T02:57:20.560Z,9.90
2018-07-12T02:58:20.525Z,11.50
2018-07-12T02:59:20.515Z,15.30
2018-07-12T03:00:20.503Z,14.80
2018-07-12T03:01:20.497Z,11.80
2018-07-12T03:02:20.480Z,12.90
2018-07-12T03:03:20.489Z,7.00
2018-07-12T03:04:20.458Z,9.70
2018-07-12T03:05:20.452Z,11.30
2018-07-12T03:06:20.435Z,11.30
2018-07-12T03:07:20.433Z,10.80
2018-07-12T03:08:20.415Z,17.50
2018-07-12T03:09:20.418Z,14.20
2018-07-12T03:10:20.391Z,9.40
2018-07-12T03:11:20.400Z,11.40
2018-07-12T03:12:20.370Z,14.90
2018-07-12T03:13:20.358Z,9.40
2018-07-12T03:14:20.361Z,12.10
2018-07-12T03:15:20.338Z,19.30
2018-07-12T03:16:20.325Z,12.30
2018-07-12T03:17:20.314Z,9.50
2018-07-12T03:18:20.303Z,11.70
2018-07-12T03:19:20.316Z,21.10
2018-07-12T03:20:20.282Z,11.20
2018-07-12T03:21:20.271Z,14.20
2018-07-12T03:22:20.258Z,11.40
2018-07-12T03:23:20.250Z,10.50
2018-07-12T03:24:20.263Z,11.60
2018-07-12T03:25:20.244Z,20.30
2018-07-12T03:26:20.216Z,10.80
2018-07-12T03:27:20.204Z,13.70
2018-07-12T03:28:20.193Z,9.90
2018-07-12T03:29:20.182Z,14.50
2018-07-12T03:30:20.172Z,10.90
2018-07-12T03:31:20.172Z,18.10
2018-07-12T03:32:20.148Z,11.40
2018-07-12T03:33:20.136Z,13.40
2018-07-12T03:34:20.148Z,14.70
2018-07-12T03:35:20.114Z,13.00
2018-07-12T03:36:20.122Z,10.70
2018-07-12T03:37:20.098Z,12.20
2018-07-12T03:38:20.081Z,13.70
2018-07-12T03:39:20.069Z,11.20
2018-07-12T03:40:20.081Z,12.80
2018-07-12T03:41:20.065Z,19.60
2018-07-12T03:42:20.037Z,14.50
2018-07-12T03:43:20.029Z,12.60
2018-07-12T03:44:20.017Z,16.20
2018-07-12T03:45:20.004Z,12.40
2018-07-12T03:46:20.015Z,10.70
2018-07-12T03:47:19.993Z,14.60
2018-07-12T03:48:19.969Z,12.50
2018-07-12T03:49:19.958Z,12.00
2018-07-12T03:50:19.948Z,11.70
2018-07-12T03:51:19.934Z,13.80
2018-07-12T03:52:20.332Z,12.00
2018-07-12T03:53:19.913Z,11.90
2018-07-12T03:54:19.900Z,14.00
2018-07-12T03:55:19.895Z,16.00
2018-07-12T03:56:19.879Z,20.90
2018-07-12T03:57:19.883Z,13.80
2018-07-12T03:58:19.872Z,10.60
2018-07-12T03:59:19.845Z,11.20
2018-07-12T04:00:19.837Z,10.10
2018-07-12T04:01:19.827Z,13.70
2018-07-12T04:02:19.814Z,15.00
2018-07-12T04:03:19.815Z,11.20
2018-07-12T04:04:19.792Z,7.70
2018-07-12T04:05:19.778Z,6.30
2018-07-12T04:06:19.770Z,22.50
2018-07-12T04:07:19.756Z,10.40
2018-07-12T04:08:19.769Z,8.30
2018-07-12T04:09:19.734Z,10.90
2018-07-12T04:10:19.742Z,22.20
2018-07-12T04:11:19.716Z,10.00
2018-07-12T04:12:19.700Z,13.60
2018-07-12T04:13:19.687Z,12.60
2018-07-12T04:14:19.695Z,17.00
2018-07-12T04:15:19.672Z,11.10
2018-07-12T04:16:19.661Z,14.60
2018-07-12T04:17:19.642Z,12.90
2018-07-12T04:18:19.638Z,10.40
2018-07-12T04:19:19.620Z,13.50
2018-07-12T04:20:19.645Z,10.10
2018-07-12T04:21:19.599Z,8.50
2018-07-12T04:22:19.589Z,12.10
2018-07-12T04:23:19.576Z,12.10
2018-07-12T04:24:19.567Z,17.20
2018-07-12T04:25:19.564Z,7.70
2018-07-12T04:26:19.542Z,11.10
2018-07-12T04:27:19.538Z,7.10
2018-07-12T04:28:19.518Z,7.20
2018-07-12T04:29:19.506Z,11.70
2018-07-12T04:30:19.513Z,10.40
2018-07-12T04:31:19.495Z,10.20
2018-07-12T04:32:19.474Z,9.30
2018-07-12T04:33:19.482Z,13.60
2018-07-12T04:34:19.447Z,23.70
2018-07-12T04:35:19.437Z,16.20
2018-07-12T04:36:19.449Z,10.20
2018-07-12T04:37:19.418Z,24.60
2018-07-12T04:38:19.417Z,9.20
2018-07-12T04:39:19.392Z,15.20
2018-07-12T04:40:19.383Z,8.20
2018-07-12T04:41:19.373Z,15.50
2018-07-12T04:42:19.371Z,10.60
2018-07-12T04:43:19.349Z,8.20
2018-07-12T04:44:19.337Z,11.50
2018-07-12T04:45:19.325Z,11.20
2018-07-12T04:46:19.319Z,12.30
2018-07-12T04:47:19.317Z,10.00
2018-07-12T04:48:19.294Z,10.00
2018-07-12T04:49:19.281Z,19.60
2018-07-12T04:50:19.274Z,10.70
2018-07-12T04:51:19.323Z,12.10
2018-07-12T04:52:19.266Z,11.40
2018-07-12T04:53:19.239Z,12.00
2018-07-12T04:54:19.226Z,13.70
2018-07-12T04:55:19.215Z,14.70
2018-07-12T04:56:19.222Z,13.60
2018-07-12T04:57:19.209Z,14.20
2018-07-12T04:58:19.337Z,9.50
2018-07-12T04:59:19.172Z,11.30
2018-07-12T05:00:19.163Z,13.00
2018-07-12T05:01:19.153Z,13.20
2018-07-12T05:02:19.159Z,10.80
2018-07-12T05:03:19.126Z,12.90
2018-07-12T05:04:19.119Z,8.90
2018-07-12T05:05:19.104Z,11.80
2018-07-12T05:06:19.096Z,18.10
2018-07-12T05:07:19.081Z,11.80
2018-07-12T05:08:19.087Z,8.20
2018-07-12T05:09:19.067Z,13.10
2018-07-12T05:10:19.048Z,10.60
2018-07-12T05:11:19.040Z,13.90
2018-07-12T05:12:19.028Z,13.30
2018-07-12T05:13:19.031Z,13.40
2018-07-12T05:14:19.005Z,12.80
2018-07-12T05:15:18.993Z,12.50
2018-07-12T05:16:19.090Z,7.70
2018-07-12T05:17:18.971Z,11.60
2018-07-12T05:18:18.976Z,12.70
2018-07-12T05:19:18.971Z,12.30
2018-07-12T05:20:18.938Z,10.80
2018-07-12T05:21:18.942Z,10.90
2018-07-12T05:22:18.917Z,10.50
2018-07-12T05:23:18.930Z,8.90
2018-07-12T05:24:18.893Z,13.40
2018-07-12T05:25:18.883Z,9.30
2018-07-12T05:26:18.872Z,16.00
2018-07-12T05:27:18.861Z,13.40
2018-07-12T05:28:18.849Z,12.60
2018-07-12T05:29:18.851Z,16.40
2018-07-12T05:30:18.831Z,10.80
2018-07-12T05:31:18.817Z,16.40
2018-07-12T05:32:18.822Z,7.50
2018-07-12T05:33:18.794Z,13.70
2018-07-12T05:34:18.799Z,12.50
2018-07-12T05:35:18.772Z,12.30
2018-07-12T05:36:18.762Z,13.00
2018-07-12T05:37:18.749Z,12.40
2018-07-12T05:38:18.739Z,23.90
2018-07-12T05:39:18.823Z,16.00
2018-07-12T05:40:18.719Z,11.80
2018-07-12T05:41:18.706Z,12.40
2018-07-12T05:42:18.708Z,9.90
2018-07-12T05:43:18.685Z,9.90
2018-07-12T05:44:18.688Z,11.20
2018-07-12T05:45:18.663Z,15.20
2018-07-12T05:46:18.650Z,9.30
2018-07-12T05:47:18.678Z,10.70
2018-07-12T05:48:18.631Z,20.10
2018-07-12T05:49:18.638Z,17.10
2018-07-12T05:50:18.997Z,13.40
2018-07-12T05:51:18.596Z,13.00
2018-07-12T05:52:18.585Z,13.40
2018-07-12T05:53:18.575Z,12.40
2018-07-12T05:54:18.562Z,10.40
2018-07-12T05:55:18.577Z,12.30
2018-07-12T05:56:18.538Z,18.20
2018-07-12T05:57:18.531Z,10.10
2018-07-12T05:58:18.518Z,16.40
2018-07-12T05:59:18.513Z,13.90
2018-07-12T06:00:18.514Z,15.00
2018-07-12T06:01:18.484Z,16.80
2018-07-12T06:02:18.475Z,15.70
2018-07-12T06:03:18.462Z,14.10
2018-07-12T06:04:18.453Z,19.00
2018-07-12T06:05:18.482Z,16.70
2018-07-12T06:06:18.444Z,15.10
2018-07-12T06:07:18.417Z,12.70
2018-07-12T06:08:18.413Z,17.60
2018-07-12T06:09:18.400Z,16.70
2018-07-12T06:10:18.388Z,15.80
2018-07-12T06:11:18.388Z,14.60
2018-07-12T06:12:18.366Z,17.00
2018-07-12T06:13:18.469Z,10.90
2018-07-12T06:14:18.344Z,12.60
2018-07-12T06:15:18.330Z,9.70
2018-07-12T06:16:18.341Z,14.30
2018-07-12T06:17:18.308Z,15.00
2018-07-12T06:18:18.322Z,10.60
2018-07-12T06:19:18.292Z,10.60
2018-07-12T06:20:18.277Z,15.70
2018-07-12T06:21:18.265Z,13.40
2018-07-12T06:22:18.281Z,9.70
2018-07-12T06:23:18.244Z,12.20
2018-07-12T06:24:18.230Z,14.30
2018-07-12T06:25:18.220Z,12.30
2018-07-12T06:26:18.210Z,11.50
2018-07-12T06:27:18.212Z,11.20
2018-07-12T06:28:18.188Z,10.20
2018-07-12T06:29:18.175Z,14.20
2018-07-12T06:30:18.186Z,17.80
2018-07-12T06:31:18.156Z,16.00
2018-07-12T06:32:18.164Z,18.10
2018-07-12T06:33:18.135Z,21.30
2018-07-12T06:34:18.122Z,12.80
2018-07-12T06:35:18.112Z,18.20
2018-07-12T06:36:18.119Z,13.60
2018-07-12T06:37:18.154Z,14.60
2018-07-12T06:38:18.090Z,19.00
2018-07-12T06:39:18.066Z,22.70
2018-07-12T06:40:18.057Z,20.60
2018-07-12T06:41:18.056Z,14.10
2018-07-12T06:42:18.040Z,11.30
2018-07-12T06:43:18.055Z,18.30
2018-07-12T06:44:18.009Z,13.20
2018-07-12T06:45:18.000Z,16.20
2018-07-12T06:46:17.988Z,14.70
2018-07-12T06:47:17.996Z,12.30
2018-07-12T06:48:17.993Z,14.30
2018-07-12T06:49:17.953Z,21.10
2018-07-12T06:50:17.943Z,15.30
2018-07-12T06:51:17.931Z,19.90
2018-07-12T06:52:17.920Z,18.80
2018-07-12T06:53:17.931Z,18.50
2018-07-12T06:54:18.065Z,20.20
2018-07-12T06:55:17.886Z,18.80
2018-07-12T06:56:17.877Z,19.10
2018-07-12T06:57:17.870Z,16.40
2018-07-12T06:58:17.854Z,21.90
2018-07-12T06:59:17.858Z,23.90
2018-07-12T07:00:17.835Z,20.90
2018-07-12T07:01:17.821Z,31.20
2018-07-12T07:02:17.813Z,23.60
2018-07-12T07:03:17.799Z,28.20
2018-07-12T07:04:17.817Z,29.50
2018-07-12T07:05:17.798Z,29.20
2018-07-12T07:06:17.767Z,28.80
2018-07-12T07:07:17.760Z,30.30
2018-07-12T07:08:17.746Z,29.70
2018-07-12T07:09:17.759Z,29.50
2018-07-12T07:10:17.724Z,25.80
2018-07-12T07:11:17.716Z,27.50
2018-07-12T07:12:17.701Z,29.00
2018-07-12T07:13:17.692Z,29.70
2018-07-12T07:14:17.680Z,32.60
2018-07-12T07:15:17.684Z,26.60
2018-07-12T07:16:17.658Z,32.40
2018-07-12T07:17:17.646Z,30.10
2018-07-12T07:18:17.637Z,32.00
2018-07-12T07:19:17.624Z,28.90
2018-07-12T07:20:17.678Z,31.20
2018-07-12T07:21:17.603Z,32.90
2018-07-12T07:22:17.597Z,31.50
2018-07-12T07:23:17.582Z,30.60
2018-07-12T07:24:17.569Z,31.10
2018-07-12T07:25:17.588Z,30.10
2018-07-12T07:26:17.633Z,35.20
2018-07-12T07:27:17.537Z,37.40
2018-07-12T07:28:17.527Z,28.20
2018-07-12T07:29:17.518Z,31.10
2018-07-12T07:30:17.544Z,34.10
2018-07-12T07:31:17.495Z,29.70
2018-07-12T07:32:17.507Z,34.40
2018-07-12T07:33:17.473Z,30.00
2018-07-12T07:34:17.463Z,29.70
2018-07-12T07:35:17.450Z,24.60
2018-07-12T07:36:17.456Z,28.50
2018-07-12T07:37:17.430Z,27.30
2018-07-12T07:38:17.433Z,27.70
2018-07-12T07:39:17.406Z,27.60
2018-07-12T07:40:17.404Z,28.20
2018-07-12T07:41:17.404Z,27.20
2018-07-12T07:42:17.373Z,28.10
2018-07-12T07:43:17.407Z,26.90
2018-07-12T07:44:17.353Z,32.60
2018-07-12T07:45:17.342Z,26.50
2018-07-12T07:46:17.331Z,28.30
2018-07-12T07:47:17.332Z,25.70
2018-07-12T07:48:17.321Z,27.30
2018-07-12T07:49:17.328Z,30.40
2018-07-12T07:50:17.287Z,28.90
2018-07-12T07:51:17.276Z,27.70
2018-07-12T07:52:17.276Z,28.80
2018-07-12T07:53:17.257Z,28.60
2018-07-12T07:54:17.245Z,29.30
2018-07-12T07:55:17.233Z,28.80
2018-07-12T07:56:17.219Z,20.10
2018-07-12T07:57:17.235Z,21.30
2018-07-12T07:58:17.198Z,26.00
2018-07-12T07:59:17.187Z,25.80
2018-07-12T08:00:17.175Z,23.50
2018-07-12T08:01:17.179Z,28.20
2018-07-12T08:02:17.155Z,29.00
2018-07-12T08:03:17.205Z,32.90
2018-07-12T08:04:17.131Z,23.10
2018-07-12T08:05:17.121Z,28.30
2018-07-12T08:06:17.109Z,24.50
2018-07-12T08:07:17.108Z,25.70
2018-07-12T08:08:17.101Z,29.30
2018-07-12T08:09:17.077Z,28.80
2018-07-12T08:10:17.066Z,24.20
2018-07-12T08:11:17.072Z,27.60
2018-07-12T08:12:17.042Z,26.10
2018-07-12T08:13:17.047Z,28.10
2018-07-12T08:14:17.028Z,31.90
2018-07-12T08:15:17.011Z,24.10
2018-07-12T08:16:17.043Z,33.10
2018-07-12T08:17:16.989Z,22.70
2018-07-12T08:18:17.003Z,27.40
2018-07-12T08:19:16.974Z,25.10
2018-07-12T08:20:16.957Z,20.60
2018-07-12T08:21:16.944Z,28.10
2018-07-12T08:22:16.933Z,23.50
2018-07-12T08:23:16.924Z,27.10
2018-07-12T08:24:16.939Z,23.30
2018-07-12T08:25:16.903Z,27.10
2018-07-12T08:26:16.891Z,23.00
2018-07-12T08:27:16.879Z,26.60
2018-07-12T08:28:16.869Z,23.00
2018-07-12T08:29:16.890Z,25.20
2018-07-12T08:32:36.549Z,17.80
2018-07-12T08:33:34.506Z,21.10
2018-07-12T08:34:34.514Z,20.80
2018-07-12T08:35:34.519Z,23.30
2018-07-12T08:36:34.474Z,21.80
2018-07-12T08:37:34.465Z,18.60
2018-07-12T08:38:34.454Z,24.90
2018-07-12T08:39:34.446Z,21.40
2018-07-12T08:40:34.465Z,25.20
2018-07-12T08:41:34.432Z,23.60
2018-07-12T08:42:34.597Z,22.50
2018-07-12T08:43:34.402Z,19.00
2018-07-12T08:44:34.391Z,21.50
2018-07-12T08:45:34.392Z,26.10
2018-07-12T08:46:34.369Z,20.30
2018-07-12T08:47:34.359Z,25.60
2018-07-12T08:48:34.358Z,20.00
2018-07-12T08:49:34.339Z,20.40
2018-07-12T08:50:34.345Z,24.50
2018-07-12T08:51:34.317Z,22.40
2018-07-12T08:52:34.546Z,24.60
2018-07-12T08:53:34.297Z,20.00
2018-07-12T08:54:34.346Z,24.70
2018-07-12T08:55:34.289Z,23.20
2018-07-12T08:56:34.277Z,18.00
2018-07-12T08:57:34.256Z,22.30
2018-07-12T08:58:34.262Z,21.40
2018-07-12T08:59:34.236Z,25.50
2018-07-12T09:00:34.248Z,23.90
2018-07-12T09:01:34.211Z,26.30
2018-07-12T09:02:34.226Z,21.10
2018-07-12T09:03:34.191Z,21.70
2018-07-12T09:04:34.185Z,21.20
2018-07-12T09:05:34.180Z,21.20
2018-07-12T09:06:34.160Z,22.10
2018-07-12T09:07:34.148Z,22.40
2018-07-12T09:08:34.141Z,24.40
2018-07-12T09:09:34.128Z,18.10
2018-07-12T09:10:34.148Z,22.30
2018-07-12T09:11:34.120Z,20.80
2018-07-12T09:12:34.096Z,18.50
2018-07-12T09:13:34.084Z,19.60
2018-07-12T09:14:34.083Z,19.70
2018-07-12T09:15:34.076Z,17.50
2018-07-12T09:16:34.056Z,18.30
2018-07-12T09:17:34.051Z,18.70
2018-07-12T09:18:34.034Z,19.60
2018-07-12T09:19:34.020Z,16.20
2018-07-12T09:20:34.029Z,19.50
2018-07-12T09:21:34.035Z,23.30
2018-07-12T09:22:34.003Z,27.60
2018-07-12T09:23:33.979Z,16.50
2018-07-12T09:24:33.968Z,21.50
2018-07-12T09:25:34.028Z,18.30
2018-07-12T09:26:33.947Z,20.40
2018-07-12T09:27:33.937Z,20.70
2018-07-12T09:28:33.927Z,19.40
2018-07-12T09:29:33.914Z,19.40
2018-07-12T09:30:33.917Z,15.80
2018-07-12T09:31:33.899Z,16.00
2018-07-12T09:32:33.884Z,22.50
2018-07-12T09:33:33.876Z,18.40
2018-07-12T09:34:33.866Z,22.80
2018-07-12T09:35:33.865Z,19.70
2018-07-12T09:36:33.842Z,21.60
2018-07-12T09:37:33.837Z,21.60
2018-07-12T09:38:33.818Z,21.90
2018-07-12T09:39:33.809Z,24.20
2018-07-12T09:40:33.817Z,24.80
2018-07-12T09:41:33.785Z,22.30
2018-07-12T09:42:33.775Z,23.50
2018-07-12T09:43:33.766Z,20.30
2018-07-12T09:44:33.796Z,26.80
2018-07-12T09:45:33.743Z,32.20
2018-07-12T09:46:33.746Z,27.00
2018-07-12T09:47:33.793Z,25.10
2018-07-12T09:48:33.713Z,28.80
2018-07-12T09:49:33.703Z,29.70
2018-07-12T09:50:33.705Z,25.60
2018-07-12T09:51:33.680Z,24.10
2018-07-12T09:52:33.669Z,25.70
2018-07-12T09:53:33.660Z,27.00
2018-07-12T09:54:33.660Z,27.00
2018-07-12T09:55:33.713Z,21.80
2018-07-12T09:56:33.689Z,26.10
2018-07-12T09:57:33.625Z,24.50
2018-07-12T09:58:33.609Z,28.40
2018-07-12T09:59:33.595Z,29.40
2018-07-12T10:00:33.603Z,24.80
2018-07-12T10:01:33.586Z,27.00
2018-07-12T10:02:33.671Z,26.10
2018-07-12T10:03:33.555Z,28.10
2018-07-12T10:04:33.546Z,21.10
2018-07-12T10:05:33.533Z,20.80
2018-07-12T10:06:33.536Z,20.40
2018-07-12T10:07:33.513Z,23.60
2018-07-12T10:08:33.501Z,23.40
2018-07-12T10:09:33.490Z,18.60
2018-07-12T10:10:33.541Z,20.90
2018-07-12T10:11:33.509Z,22.20
2018-07-12T10:12:33.458Z,22.10
2018-07-12T10:13:33.448Z,21.90
2018-07-12T10:14:33.438Z,23.00
2018-07-12T10:15:33.428Z,27.30
2018-07-12T10:16:33.429Z,21.10
2018-07-12T10:17:33.429Z,21.50
2018-07-12T10:18:33.396Z,26.30
2018-07-12T10:19:33.384Z,23.30
2018-07-12T10:20:33.372Z,25.50
2018-07-12T10:21:33.395Z,26.50
2018-07-12T10:22:33.353Z,29.90
2018-07-12T10:23:33.344Z,24.00
2018-07-12T10:24:33.331Z,25.90
2018-07-12T10:25:33.320Z,22.40
2018-07-12T10:26:33.322Z,23.80
2018-07-12T10:27:33.297Z,23.30
2018-07-12T10:28:33.288Z,27.40
2018-07-12T10:29:33.278Z,22.90
2018-07-12T10:30:33.285Z,20.50
2018-07-12T10:31:33.279Z,27.90
2018-07-12T10:32:33.246Z,21.60
2018-07-12T10:33:33.233Z,26.00
2018-07-12T10:34:33.226Z,27.30
2018-07-12T10:35:33.215Z,20.10
2018-07-12T10:36:33.238Z,24.10
2018-07-12T10:37:33.193Z,23.90
2018-07-12T10:38:33.183Z,23.10
2018-07-12T10:39:33.216Z,21.70
2018-07-12T10:40:33.182Z,23.70
2018-07-12T10:41:33.164Z,21.30
2018-07-12T10:42:33.140Z,19.10
2018-07-12T10:43:33.134Z,20.30
2018-07-12T10:44:33.169Z,21.80
2018-07-12T10:45:33.110Z,22.00
2018-07-12T10:46:33.110Z,19.80
2018-07-12T10:47:33.092Z,20.10
2018-07-12T10:48:33.077Z,18.90
2018-07-12T10:49:33.069Z,18.70
2018-07-12T10:50:33.064Z,21.00
2018-07-12T10:51:33.060Z,15.10
2018-07-12T10:52:33.039Z,16.40
2018-07-12T10:53:33.033Z,14.70
2018-07-12T10:54:33.018Z,16.60
2018-07-12T10:55:33.008Z,14.40
2018-07-12T10:56:33.011Z,13.50
2018-07-12T10:57:32.987Z,16.70
2018-07-12T10:58:32.978Z,13.50
2018-07-12T10:59:32.969Z,12.70
2018-07-12T11:00:32.959Z,12.10
2018-07-12T11:01:32.965Z,14.50
2018-07-12T11:02:32.938Z,13.60
2018-07-12T11:03:32.942Z,14.70
2018-07-12T11:04:32.977Z,13.40
2018-07-12T11:05:32.910Z,13.00
2018-07-12T11:06:32.912Z,12.60
2018-07-12T11:07:32.894Z,10.00
2018-07-12T11:08:32.879Z,8.90
2018-07-12T11:09:32.870Z,7.20
2018-07-12T11:10:32.958Z,8.90
2018-07-12T11:11:32.871Z,10.40
2018-07-12T11:12:32.843Z,7.10
2018-07-12T11:13:32.851Z,10.00
2018-07-12T11:14:32.821Z,7.60
2018-07-12T11:15:32.811Z,9.00
2018-07-12T11:16:32.820Z,12.50
2018-07-12T11:17:32.795Z,15.30
2018-07-12T11:18:32.787Z,11.70
2018-07-12T11:19:32.772Z,10.10
2018-07-12T11:20:32.763Z,8.20
2018-07-12T11:21:32.753Z,11.20
2018-07-12T11:22:32.757Z,10.10
2018-07-12T11:23:32.737Z,10.20
2018-07-12T11:24:32.723Z,8.10
2018-07-12T11:25:32.714Z,7.90
2018-07-12T11:26:32.710Z,11.50
2018-07-12T11:27:32.707Z,9.30
2018-07-12T11:28:32.700Z,10.20
2018-07-12T11:29:32.679Z,25.40
2018-07-12T11:30:32.673Z,9.30
2018-07-12T11:31:32.658Z,12.70
2018-07-12T11:32:32.659Z,9.60
2018-07-12T11:33:32.639Z,7.90
2018-07-12T11:34:32.629Z,11.00
2018-07-12T11:35:32.621Z,10.00
2018-07-12T11:36:32.629Z,9.00
2018-07-12T11:37:32.610Z,7.90
2018-07-12T11:38:32.587Z,11.50
2018-07-12T11:39:32.577Z,10.00
2018-07-12T11:40:32.569Z,11.70
2018-07-12T11:41:32.577Z,16.00
2018-07-12T11:42:32.548Z,13.60
2018-07-12T11:43:32.535Z,13.60
2018-07-12T11:44:32.525Z,14.40
2018-07-12T11:45:32.517Z,12.10
2018-07-12T11:46:32.568Z,17.10
2018-07-12T11:47:32.496Z,12.30
2018-07-12T11:48:32.484Z,12.50
2018-07-12T11:49:32.473Z,14.20
2018-07-12T11:50:32.464Z,10.90
2018-07-12T11:51:32.469Z,14.10
2018-07-12T11:52:32.461Z,17.60
2018-07-12T11:53:32.433Z,12.70
2018-07-12T11:54:32.421Z,18.00
2018-07-12T11:55:32.413Z,16.80
2018-07-12T11:56:32.413Z,12.30
2018-07-12T11:57:32.391Z,13.50
2018-07-12T11:58:32.384Z,13.40
2018-07-12T11:59:32.423Z,11.70
2018-07-12T12:00:32.360Z,12.50
2018-07-12T12:01:32.404Z,13.20
2018-07-12T12:02:32.347Z,11.20
2018-07-12T12:03:32.327Z,13.20
2018-07-12T12:04:32.324Z,11.30
2018-07-12T12:05:32.314Z,12.10
2018-07-12T12:06:32.307Z,13.30
2018-07-12T12:07:32.284Z,13.40
2018-07-12T12:08:32.275Z,13.50
2018-07-12T12:09:32.282Z,9.40
2018-07-12T12:10:32.268Z,9.30
2018-07-12T12:11:32.252Z,8.10
2018-07-12T12:12:32.234Z,11.90
2018-07-12T12:13:32.220Z,12.40
2018-07-12T12:14:32.212Z,11.00
2018-07-12T12:15:32.207Z,12.30
2018-07-12T12:16:32.202Z,11.50
2018-07-12T12:17:32.181Z,13.90
2018-07-12T12:18:32.168Z,11.60
2018-07-12T12:19:32.162Z,10.30
2018-07-12T12:20:32.152Z,12.50
2018-07-12T12:21:32.156Z,14.20
2018-07-12T12:22:32.127Z,10.60
2018-07-12T12:23:32.118Z,10.20
2018-07-12T12:24:32.108Z,14.60
2018-07-12T12:25:32.123Z,10.80
2018-07-12T12:26:32.088Z,9.70
2018-07-12T12:27:32.138Z,11.20
2018-07-12T12:28:32.064Z,16.80
2018-07-12T12:29:32.057Z,12.20
2018-07-12T12:30:32.043Z,16.00
2018-07-12T12:31:32.036Z,10.60
2018-07-12T12:32:32.061Z,8.70
2018-07-12T12:33:32.032Z,15.60
2018-07-12T12:34:32.004Z,12.30
2018-07-12T12:35:31.994Z,10.10
2018-07-12T12:36:31.996Z,10.00
2018-07-12T12:37:31.986Z,10.70
2018-07-12T12:38:31.965Z,7.80
2018-07-12T12:39:31.948Z,10.80
2018-07-12T12:40:31.942Z,11.00
2018-07-12T12:41:31.939Z,11.20
2018-07-12T12:42:31.915Z,9.30
2018-07-12T12:43:31.906Z,11.60
2018-07-12T12:44:31.902Z,12.10
2018-07-12T12:45:31.888Z,16.50
2018-07-12T12:46:31.894Z,10.70
2018-07-12T12:47:31.894Z,10.30
2018-07-12T12:48:31.854Z,15.00
2018-07-12T12:49:31.843Z,7.40
2018-07-12T12:50:31.834Z,13.00
2018-07-12T12:51:31.841Z,15.00
2018-07-12T12:52:31.811Z,11.50
2018-07-12T12:53:31.801Z,12.00
2018-07-12T12:54:31.791Z,10.70
2018-07-12T12:55:31.798Z,13.90
2018-07-12T12:56:31.774Z,15.20
2018-07-12T12:57:31.771Z,13.10
2018-07-12T12:58:31.753Z,9.40
2018-07-12T12:59:31.746Z,11.80